Time;durP1;ratioP1;P1;durP2;ratioP2;P2;SDS_P1;SDS_P2;PMS_P1;PMS_P2;Temp;Humidity;BMP_temperature;BMP_pressure;BME280_temperature;BME280_humidity;BME280_pressure;Samples;Min_cycle;Max_cycle;Signal;HPM_P1;HPM_P2
2023/12/12 00:02:04;;;;;;;15.35;3.20;;;;;;;;;;4990155;28;21212;-64
2023/12/12 00:04:29;;;;;;;9.90;3.25;;;;;;;;;;4978149;28;20137;-64
2023/12/12 00:06:54;;;;;;;15.05;3.85;;;;;;;;;;4990513;28;20581;-64
2023/12/12 00:09:19;;;;;;;10.17;3.97;;;;;;;;;;4989214;28;20804;-64
2023/12/12 00:11:45;;;;;;;10.82;2.60;;;;;;;;;;4989660;28;21059;-64
2023/12/12 00:14:10;;;;;;;8.27;2.85;;;;;;;;;;4977991;28;20034;-64
2023/12/12 00:16:35;;;;;;;12.35;3.95;;;;;;;;;;4984204;28;20235;-64
2023/12/12 00:19:01;;;;;;;13.50;3.03;;;;;;;;;;4994273;28;20029;-64
2023/12/12 00:21:26;;;;;;;14.30;3.60;;;;;;;;;;4988508;28;20315;-64
2023/12/12 00:23:51;;;;;;;12.68;3.00;;;;;;;;;;4999089;28;20038;-64
2023/12/12 00:26:16;;;;;;;12.77;2.67;;;;;;;;;;5008947;28;20427;-64
2023/12/12 00:28:41;;;;;;;11.53;3.63;;;;;;;;;;4987210;28;21106;-64
2023/12/12 00:31:07;;;;;;;9.70;2.53;;;;;;;;;;4984112;28;20401;-64
2023/12/12 00:33:32;;;;;;;11.10;2.75;;;;;;;;;;4991294;28;20041;-64
2023/12/12 00:35:59;;;;;;;12.25;3.22;;;;;;;;;;4985327;28;20040;-64
2023/12/12 00:38:28;;;;;;;7.65;2.65;;;;;;;;;;4994359;28;20073;-64
2023/12/12 00:40:54;;;;;;;11.95;2.97;;;;;;;;;;4984676;28;20800;-65
2023/12/12 00:43:19;;;;;;;9.45;2.80;;;;;;;;;;4980453;28;20062;-65
2023/12/12 00:45:45;;;;;;;10.35;2.58;;;;;;;;;;4995616;28;20028;-65
2023/12/12 00:48:10;;;;;;;17.87;3.30;;;;;;;;;;4976935;28;20022;-65
2023/12/12 00:50:35;;;;;;;7.28;2.50;;;;;;;;;;4985888;28;20283;-64
2023/12/12 00:53:00;;;;;;;15.55;3.25;;;;;;;;;;4989820;28;20830;-65
2023/12/12 00:55:25;;;;;;;9.77;2.67;;;;;;;;;;4991308;28;20072;-64
2023/12/12 00:57:51;;;;;;;11.60;2.53;;;;;;;;;;4986989;28;20064;-64
2023/12/12 01:00:17;;;;;;;8.48;2.53;;;;;;;;;;4998549;28;20379;-64
2023/12/12 01:02:42;;;;;;;5.38;2.17;;;;;;;;;;4982097;28;20136;-65
2023/12/12 01:05:07;;;;;;;11.80;2.80;;;;;;;;;;4985907;28;20029;-64
2023/12/12 01:07:32;;;;;;;10.82;2.65;;;;;;;;;;4995899;28;20892;-64
2023/12/12 01:09:57;;;;;;;13.98;2.67;;;;;;;;;;4984752;28;20141;-64
2023/12/12 01:12:25;;;;;;;5.57;2.23;;;;;;;;;;4986263;28;20125;-64
2023/12/12 01:14:50;;;;;;;6.47;2.75;;;;;;;;;;4985793;28;20433;-65
2023/12/12 01:17:15;;;;;;;6.17;2.17;;;;;;;;;;4991985;28;20598;-65
2023/12/12 01:19:40;;;;;;;7.73;2.37;;;;;;;;;;4992730;28;20312;-65
2023/12/12 01:22:06;;;;;;;11.55;3.28;;;;;;;;;;4993321;28;21285;-65
2023/12/12 01:24:31;;;;;;;8.18;2.40;;;;;;;;;;4996382;28;20033;-65
2023/12/12 01:26:56;;;;;;;4.13;1.92;;;;;;;;;;4987438;28;20934;-65
2023/12/12 01:29:21;;;;;;;4.32;2.13;;;;;;;;;;4985960;28;20104;-64
2023/12/12 01:31:46;;;;;;;11.17;3.20;;;;;;;;;;4998271;28;20034;-67
2023/12/12 01:34:12;;;;;;;7.87;2.50;;;;;;;;;;4984662;28;20414;-66
2023/12/12 01:36:37;;;;;;;6.85;2.45;;;;;;;;;;4997555;28;20407;-64
2023/12/12 01:39:03;;;;;;;3.78;2.10;;;;;;;;;;4985232;28;20427;-66
2023/12/12 01:41:28;;;;;;;8.65;2.55;;;;;;;;;;4974925;28;20026;-66
2023/12/12 01:43:53;;;;;;;9.57;2.87;;;;;;;;;;4984693;28;20498;-66
2023/12/12 01:46:20;;;;;;;9.90;2.80;;;;;;;;;;4982494;28;20272;-66
2023/12/12 01:48:46;;;;;;;9.73;3.15;;;;;;;;;;4991727;28;20364;-66
2023/12/12 01:51:12;;;;;;;5.93;2.53;;;;;;;;;;4983248;28;20080;-66
2023/12/12 01:53:38;;;;;;;6.57;1.98;;;;;;;;;;4999365;28;20030;-66
2023/12/12 01:56:04;;;;;;;9.05;2.50;;;;;;;;;;4986476;28;20123;-66
2023/12/12 01:58:30;;;;;;;9.23;2.35;;;;;;;;;;4991655;28;20084;-67
2023/12/12 02:00:56;;;;;;;7.72;2.50;;;;;;;;;;4986182;28;20787;-66
2023/12/12 02:03:22;;;;;;;10.38;2.42;;;;;;;;;;4984387;28;20036;-65
2023/12/12 02:05:48;;;;;;;10.93;2.45;;;;;;;;;;4989993;28;20037;-66
2023/12/12 02:08:13;;;;;;;9.07;3.03;;;;;;;;;;4990622;28;20377;-66
2023/12/12 02:10:39;;;;;;;8.43;2.70;;;;;;;;;;4982095;28;20758;-66
2023/12/12 02:13:05;;;;;;;7.15;2.70;;;;;;;;;;5001067;28;20097;-64
2023/12/12 02:15:30;;;;;;;16.65;2.85;;;;;;;;;;4981575;28;20044;-66
2023/12/12 02:17:56;;;;;;;5.68;1.90;;;;;;;;;;4985310;28;20061;-67
2023/12/12 02:20:21;;;;;;;13.13;2.38;;;;;;;;;;4985944;28;20091;-66
2023/12/12 02:22:46;;;;;;;18.60;2.95;;;;;;;;;;4988213;28;20026;-66
2023/12/12 02:25:13;;;;;;;13.87;2.97;;;;;;;;;;4987297;28;20026;-66
2023/12/12 02:27:38;;;;;;;7.28;3.00;;;;;;;;;;4983420;28;20277;-66
2023/12/12 02:30:05;;;;;;;12.07;3.00;;;;;;;;;;4988032;28;20017;-65
2023/12/12 02:32:30;;;;;;;8.98;2.75;;;;;;;;;;4993879;28;20072;-66
2023/12/12 02:34:55;;;;;;;6.57;2.20;;;;;;;;;;4995357;28;20121;-66
2023/12/12 02:37:21;;;;;;;6.05;2.53;;;;;;;;;;4993590;28;20030;-66
2023/12/12 02:39:46;;;;;;;5.38;2.80;;;;;;;;;;4996418;28;20044;-66
2023/12/12 02:42:11;;;;;;;10.80;2.38;;;;;;;;;;4982857;28;20049;-66
2023/12/12 02:44:36;;;;;;;8.40;3.10;;;;;;;;;;4980575;28;20947;-66
2023/12/12 02:47:02;;;;;;;6.90;2.63;;;;;;;;;;4989836;28;20863;-66
2023/12/12 02:49:27;;;;;;;9.13;2.92;;;;;;;;;;4995388;28;20855;-66
2023/12/12 02:51:52;;;;;;;11.93;3.67;;;;;;;;;;4989331;28;20861;-66
2023/12/12 02:54:17;;;;;;;11.13;2.63;;;;;;;;;;4988149;28;20920;-66
2023/12/12 02:56:43;;;;;;;6.20;2.63;;;;;;;;;;4991223;28;20037;-67
2023/12/12 02:59:08;;;;;;;12.35;2.95;;;;;;;;;;4989275;28;20283;-67
2023/12/12 03:01:33;;;;;;;12.63;3.10;;;;;;;;;;4987885;28;20025;-66
2023/12/12 03:03:58;;;;;;;10.77;3.10;;;;;;;;;;5000733;28;20021;-66
2023/12/12 03:06:23;;;;;;;13.55;3.47;;;;;;;;;;4989178;28;20295;-66
2023/12/12 03:08:49;;;;;;;10.48;3.20;;;;;;;;;;4992033;28;20032;-66
2023/12/12 03:11:14;;;;;;;11.23;3.42;;;;;;;;;;4993933;28;20036;-66
2023/12/12 03:13:39;;;;;;;13.30;3.33;;;;;;;;;;4996707;28;20044;-67
2023/12/12 03:16:05;;;;;;;12.48;3.40;;;;;;;;;;4989196;28;20041;-66
2023/12/12 03:18:30;;;;;;;11.27;3.38;;;;;;;;;;4991255;28;20048;-66
2023/12/12 03:20:55;;;;;;;7.97;2.90;;;;;;;;;;4984803;28;20442;-67
2023/12/12 03:23:20;;;;;;;10.35;3.63;;;;;;;;;;4989320;28;20813;-66
2023/12/12 03:25:46;;;;;;;13.45;3.33;;;;;;;;;;4992466;28;20778;-65
2023/12/12 03:28:11;;;;;;;15.63;3.37;;;;;;;;;;4984192;28;20025;-66
2023/12/12 03:30:36;;;;;;;8.93;2.90;;;;;;;;;;4990304;28;20327;-65
2023/12/12 03:33:01;;;;;;;21.33;3.77;;;;;;;;;;4981949;28;20281;-65
2023/12/12 03:35:26;;;;;;;13.67;3.30;;;;;;;;;;4985682;28;20408;-65
2023/12/12 03:37:52;;;;;;;10.67;3.57;;;;;;;;;;5000958;28;20280;-66
2023/12/12 03:40:17;;;;;;;7.27;3.40;;;;;;;;;;4995867;28;20279;-65
2023/12/12 03:42:42;;;;;;;10.57;3.05;;;;;;;;;;4985170;28;20296;-66
2023/12/12 03:45:08;;;;;;;11.43;2.92;;;;;;;;;;4987961;28;20028;-66
2023/12/12 03:47:33;;;;;;;11.32;3.75;;;;;;;;;;4994232;28;20044;-66
2023/12/12 03:49:58;;;;;;;10.43;3.22;;;;;;;;;;4985044;28;20029;-67
2023/12/12 03:52:23;;;;;;;12.60;2.83;;;;;;;;;;4981616;28;20034;-66
2023/12/12 03:54:48;;;;;;;13.07;3.35;;;;;;;;;;4981483;28;20307;-66
2023/12/12 03:57:14;;;;;;;17.00;3.60;;;;;;;;;;4994764;28;20024;-66
2023/12/12 03:59:39;;;;;;;19.70;3.65;;;;;;;;;;4987374;28;20312;-66
2023/12/12 04:02:04;;;;;;;17.08;3.88;;;;;;;;;;4986542;28;20026;-66
2023/12/12 04:04:30;;;;;;;11.90;3.45;;;;;;;;;;4977496;28;20079;-66
2023/12/12 04:06:55;;;;;;;14.83;2.97;;;;;;;;;;4986526;28;20467;-67
2023/12/12 04:09:20;;;;;;;17.52;3.00;;;;;;;;;;4993749;28;20300;-67
2023/12/12 04:11:45;;;;;;;8.80;3.70;;;;;;;;;;4991472;28;20017;-66
2023/12/12 04:14:11;;;;;;;18.75;4.10;;;;;;;;;;4992551;28;20296;-67
2023/12/12 04:16:36;;;;;;;7.45;2.80;;;;;;;;;;4987638;28;20036;-67
2023/12/12 04:19:01;;;;;;;18.77;3.67;;;;;;;;;;4983793;28;21268;-66
2023/12/12 04:21:26;;;;;;;13.35;3.65;;;;;;;;;;4985643;28;20017;-66
2023/12/12 04:23:52;;;;;;;19.73;4.30;;;;;;;;;;4981880;28;20758;-67
2023/12/12 04:26:17;;;;;;;18.08;3.53;;;;;;;;;;4985409;28;20022;-67
2023/12/12 04:28:42;;;;;;;19.73;4.70;;;;;;;;;;4974716;28;20025;-67
2023/12/12 04:31:12;;;;;;;13.35;3.45;;;;;;;;;;4991561;28;20898;-66
2023/12/12 04:33:38;;;;;;;14.77;3.58;;;;;;;;;;4985756;28;20887;-67
2023/12/12 04:36:03;;;;;;;14.60;3.67;;;;;;;;;;4987518;28;20084;-67
2023/12/12 04:38:28;;;;;;;16.55;3.35;;;;;;;;;;4985989;28;20280;-66
2023/12/12 04:40:53;;;;;;;9.27;3.03;;;;;;;;;;4990943;28;20037;-67
2023/12/12 04:43:19;;;;;;;14.40;3.13;;;;;;;;;;4988579;28;20260;-67
2023/12/12 04:45:44;;;;;;;16.73;3.45;;;;;;;;;;4990775;28;20284;-67
2023/12/12 04:48:09;;;;;;;13.43;3.63;;;;;;;;;;4984083;28;21133;-67
2023/12/12 04:50:34;;;;;;;11.93;3.70;;;;;;;;;;4984246;28;21199;-67
2023/12/12 04:52:59;;;;;;;13.20;3.73;;;;;;;;;;4982966;28;20838;-67
2023/12/12 04:55:25;;;;;;;17.13;3.43;;;;;;;;;;4984034;28;20404;-67
2023/12/12 04:57:50;;;;;;;12.87;3.13;;;;;;;;;;4983085;28;21172;-67
2023/12/12 05:00:15;;;;;;;13.20;3.38;;;;;;;;;;4980855;28;20272;-67
2023/12/12 05:02:41;;;;;;;15.55;4.18;;;;;;;;;;4993723;28;20140;-67
2023/12/12 05:05:06;;;;;;;10.20;3.95;;;;;;;;;;4965701;28;20024;-67
2023/12/12 05:07:32;;;;;;;13.80;3.63;;;;;;;;;;4988287;28;20037;-67
2023/12/12 05:09:57;;;;;;;10.97;3.27;;;;;;;;;;4993313;28;20030;-66
2023/12/12 05:12:22;;;;;;;16.53;3.37;;;;;;;;;;4989413;28;20380;-67
2023/12/12 05:14:47;;;;;;;14.55;2.75;;;;;;;;;;4983147;28;20301;-67
2023/12/12 05:17:13;;;;;;;10.80;3.93;;;;;;;;;;4985514;28;20034;-67
2023/12/12 05:19:38;;;;;;;15.60;3.70;;;;;;;;;;4993322;28;20273;-67
2023/12/12 05:22:03;;;;;;;20.45;3.58;;;;;;;;;;4981899;28;20420;-67
2023/12/12 05:24:28;;;;;;;9.57;2.83;;;;;;;;;;4988573;28;20030;-67
2023/12/12 05:26:54;;;;;;;17.92;3.35;;;;;;;;;;4984251;28;20029;-67
2023/12/12 05:29:19;;;;;;;16.77;4.75;;;;;;;;;;4985015;28;20025;-67
2023/12/12 05:31:45;;;;;;;16.70;3.95;;;;;;;;;;5001374;28;20034;-67
2023/12/12 05:34:10;;;;;;;17.50;3.58;;;;;;;;;;4990769;28;20095;-66
2023/12/12 05:36:35;;;;;;;14.15;4.15;;;;;;;;;;4991218;28;20187;-66
2023/12/12 05:39:00;;;;;;;15.88;4.45;;;;;;;;;;4993853;28;20034;-67
2023/12/12 05:41:26;;;;;;;13.33;3.50;;;;;;;;;;4987074;28;20843;-66
2023/12/12 05:43:51;;;;;;;12.10;4.28;;;;;;;;;;4987428;28;21309;-67
2023/12/12 05:46:16;;;;;;;18.52;4.35;;;;;;;;;;4980583;28;20061;-67
2023/12/12 05:48:42;;;;;;;16.83;3.93;;;;;;;;;;4983902;28;20259;-67
2023/12/12 05:51:07;;;;;;;10.23;3.28;;;;;;;;;;4975572;28;20292;-66
2023/12/12 05:53:33;;;;;;;12.93;3.50;;;;;;;;;;4984132;28;20029;-67
2023/12/12 05:55:59;;;;;;;14.55;3.88;;;;;;;;;;4991375;28;20025;-66
2023/12/12 05:58:25;;;;;;;8.25;2.65;;;;;;;;;;4986230;28;20065;-67
2023/12/12 06:00:51;;;;;;;10.95;3.55;;;;;;;;;;4983626;28;20901;-67
2023/12/12 06:03:17;;;;;;;7.45;2.80;;;;;;;;;;4995353;28;20029;-67
2023/12/12 06:05:43;;;;;;;10.80;3.17;;;;;;;;;;4990534;28;20038;-67
2023/12/12 06:08:08;;;;;;;14.88;2.90;;;;;;;;;;4986899;28;20037;-67
2023/12/12 06:10:33;;;;;;;10.55;3.17;;;;;;;;;;4982782;28;20029;-67
2023/12/12 06:12:58;;;;;;;11.30;3.37;;;;;;;;;;4994876;28;20897;-67
2023/12/12 06:15:24;;;;;;;14.38;3.45;;;;;;;;;;4983324;28;21239;-67
2023/12/12 06:17:49;;;;;;;8.85;4.03;;;;;;;;;;4989555;28;20045;-67
2023/12/12 06:20:14;;;;;;;10.67;2.90;;;;;;;;;;4999859;28;20078;-67
2023/12/12 06:22:39;;;;;;;9.90;2.70;;;;;;;;;;4999285;28;20399;-67
2023/12/12 06:25:06;;;;;;;9.53;2.40;;;;;;;;;;4988906;28;20629;-67
2023/12/12 06:27:31;;;;;;;10.23;2.42;;;;;;;;;;4982359;28;20273;-67
2023/12/12 06:29:56;;;;;;;14.73;2.67;;;;;;;;;;4991607;28;20076;-67
2023/12/12 06:32:22;;;;;;;12.30;3.03;;;;;;;;;;4993706;28;20049;-66
2023/12/12 06:34:47;;;;;;;12.60;3.13;;;;;;;;;;4991262;28;20038;-66
2023/12/12 06:37:12;;;;;;;11.55;3.63;;;;;;;;;;5000819;28;20428;-66
2023/12/12 06:39:38;;;;;;;10.97;2.80;;;;;;;;;;4992915;28;20883;-66
2023/12/12 06:42:06;;;;;;;13.25;2.97;;;;;;;;;;4999662;28;21640;-67
2023/12/12 06:44:31;;;;;;;6.20;2.33;;;;;;;;;;4997606;28;20505;-66
2023/12/12 06:46:56;;;;;;;12.02;3.58;;;;;;;;;;4991862;28;20026;-66
2023/12/12 06:49:23;;;;;;;6.93;2.33;;;;;;;;;;4984602;28;20932;-66
2023/12/12 06:51:49;;;;;;;13.60;2.47;;;;;;;;;;4984641;28;20029;-67
2023/12/12 06:54:15;;;;;;;15.23;3.17;;;;;;;;;;4998299;28;20040;-66
2023/12/12 06:56:40;;;;;;;12.23;2.63;;;;;;;;;;5000480;28;20025;-67
2023/12/12 06:59:05;;;;;;;9.68;2.75;;;;;;;;;;4988883;28;20800;-67
2023/12/12 07:01:31;;;;;;;9.05;2.40;;;;;;;;;;4990273;28;20033;-67
2023/12/12 07:03:57;;;;;;;9.85;2.53;;;;;;;;;;4985080;28;20025;-66
2023/12/12 07:06:22;;;;;;;11.23;2.58;;;;;;;;;;4979132;28;20033;-66
2023/12/12 07:08:48;;;;;;;14.25;3.17;;;;;;;;;;4980017;28;20026;-67
2023/12/12 07:11:14;;;;;;;14.15;3.05;;;;;;;;;;4982473;28;20445;-67
2023/12/12 07:13:39;;;;;;;14.30;3.08;;;;;;;;;;4977056;28;20026;-66
2023/12/12 07:16:05;;;;;;;9.20;2.80;;;;;;;;;;4975305;28;20029;-66
2023/12/12 07:18:30;;;;;;;8.48;3.15;;;;;;;;;;4976751;28;20903;-66
2023/12/12 07:20:57;;;;;;;16.42;3.70;;;;;;;;;;4984714;28;20030;-66
2023/12/12 07:23:22;;;;;;;12.77;3.67;;;;;;;;;;4987087;28;20094;-66
2023/12/12 07:25:47;;;;;;;9.90;2.63;;;;;;;;;;4982358;28;20802;-66
2023/12/12 07:28:12;;;;;;;13.70;3.50;;;;;;;;;;4977739;28;20029;-67
2023/12/12 07:30:38;;;;;;;10.27;3.43;;;;;;;;;;4984356;28;20033;-66
2023/12/12 07:33:03;;;;;;;12.57;2.90;;;;;;;;;;4974563;28;20289;-66
2023/12/12 07:35:28;;;;;;;10.10;2.63;;;;;;;;;;4981454;28;20299;-66
2023/12/12 07:37:53;;;;;;;12.45;3.10;;;;;;;;;;4982698;28;20288;-66
2023/12/12 07:40:19;;;;;;;11.15;3.38;;;;;;;;;;4995531;28;20494;-66
2023/12/12 07:42:47;;;;;;;11.50;2.60;;;;;;;;;;4987634;28;20824;-66
2023/12/12 07:45:12;;;;;;;10.25;2.70;;;;;;;;;;4986949;28;20033;-66
2023/12/12 07:47:38;;;;;;;11.38;2.95;;;;;;;;;;4973987;28;20025;-66
2023/12/12 07:50:05;;;;;;;11.48;2.90;;;;;;;;;;4977383;28;20052;-66
2023/12/12 07:52:31;;;;;;;11.23;3.33;;;;;;;;;;4989138;28;20029;-66
2023/12/12 07:54:56;;;;;;;8.82;2.47;;;;;;;;;;4989206;28;20026;-66
2023/12/12 07:57:21;;;;;;;7.60;2.67;;;;;;;;;;4986557;28;20049;-66
2023/12/12 07:59:46;;;;;;;6.80;2.13;;;;;;;;;;4986456;28;20281;-66
2023/12/12 08:02:12;;;;;;;7.27;1.87;;;;;;;;;;4975603;28;20288;-66
2023/12/12 08:04:37;;;;;;;10.40;2.88;;;;;;;;;;4972844;28;20281;-66
2023/12/12 08:07:03;;;;;;;9.90;2.75;;;;;;;;;;4974892;28;20025;-66
2023/12/12 08:09:29;;;;;;;10.77;2.67;;;;;;;;;;4986513;28;20060;-68
2023/12/12 08:11:54;;;;;;;9.48;2.40;;;;;;;;;;4977444;28;20025;-66
2023/12/12 08:14:20;;;;;;;6.45;2.67;;;;;;;;;;4982162;28;20149;-66
2023/12/12 08:16:45;;;;;;;9.18;2.10;;;;;;;;;;4971880;28;20040;-66
2023/12/12 08:19:10;;;;;;;7.83;2.37;;;;;;;;;;4976887;28;20825;-66
2023/12/12 08:21:35;;;;;;;9.63;2.47;;;;;;;;;;4975205;28;21234;-66
2023/12/12 08:24:01;;;;;;;4.38;1.88;;;;;;;;;;4979265;28;20132;-66
2023/12/12 08:26:26;;;;;;;5.82;1.88;;;;;;;;;;4978868;28;20537;-67
2023/12/12 08:28:51;;;;;;;7.90;2.00;;;;;;;;;;4987058;28;20136;-66
2023/12/12 08:31:16;;;;;;;11.57;1.63;;;;;;;;;;4981977;28;20025;-66
2023/12/12 08:33:45;;;;;;;6.35;2.20;;;;;;;;;;4982570;28;20275;-66
2023/12/12 08:36:10;;;;;;;4.53;1.77;;;;;;;;;;4984478;28;20021;-71
2023/12/12 08:38:36;;;;;;;7.72;2.70;;;;;;;;;;4982535;28;20037;-67
2023/12/12 08:41:01;;;;;;;7.93;2.70;;;;;;;;;;4980477;28;20923;-67
2023/12/12 08:43:27;;;;;;;8.18;2.38;;;;;;;;;;4975824;28;20044;-66
2023/12/12 08:45:54;;;;;;;12.38;3.08;;;;;;;;;;4980794;28;20896;-66
2023/12/12 08:48:21;;;;;;;7.95;1.95;;;;;;;;;;4976083;28;20029;-66
2023/12/12 08:50:48;;;;;;;4.38;1.75;;;;;;;;;;4977720;28;20026;-66
2023/12/12 08:53:15;;;;;;;8.10;2.67;;;;;;;;;;4977238;28;20171;-66
2023/12/12 08:55:41;;;;;;;8.40;2.55;;;;;;;;;;4976094;28;20080;-66
2023/12/12 08:58:07;;;;;;;8.65;2.10;;;;;;;;;;4977905;28;20075;-66
2023/12/12 09:00:32;;;;;;;8.02;2.67;;;;;;;;;;4981182;28;20140;-66
2023/12/12 09:02:57;;;;;;;5.45;2.83;;;;;;;;;;4974260;28;20054;-66
2023/12/12 09:05:23;;;;;;;9.18;2.60;;;;;;;;;;4971045;28;20022;-66
2023/12/12 09:07:48;;;;;;;8.65;2.35;;;;;;;;;;4974997;28;20037;-66
2023/12/12 09:10:13;;;;;;;6.93;2.58;;;;;;;;;;4984333;28;20025;-66
2023/12/12 09:12:38;;;;;;;7.78;2.22;;;;;;;;;;4976509;28;20131;-66
2023/12/12 09:15:05;;;;;;;5.72;2.22;;;;;;;;;;4975324;28;20030;-66
2023/12/12 09:17:30;;;;;;;8.32;2.65;;;;;;;;;;4978264;28;20030;-66
2023/12/12 09:19:56;;;;;;;4.82;2.28;;;;;;;;;;4980867;28;20037;-65
2023/12/12 09:22:21;;;;;;;7.82;2.70;;;;;;;;;;4976595;28;20087;-65
2023/12/12 09:24:46;;;;;;;4.95;2.50;;;;;;;;;;4986629;28;20831;-65
2023/12/12 09:27:13;;;;;;;7.30;2.22;;;;;;;;;;4987756;28;20059;-65
2023/12/12 09:29:40;;;;;;;5.72;2.28;;;;;;;;;;4982907;28;20878;-65
2023/12/12 09:32:07;;;;;;;9.00;2.40;;;;;;;;;;4976019;28;20236;-65
2023/12/12 09:34:32;;;;;;;6.75;2.47;;;;;;;;;;4981579;28;20041;-65
2023/12/12 09:36:57;;;;;;;6.07;1.73;;;;;;;;;;4984723;28;20869;-65
2023/12/12 09:39:23;;;;;;;6.15;2.10;;;;;;;;;;4989219;28;20138;-65
2023/12/12 09:41:49;;;;;;;5.53;2.13;;;;;;;;;;4972610;28;20044;-65
2023/12/12 09:44:15;;;;;;;5.15;2.08;;;;;;;;;;4988544;28;20053;-65
2023/12/12 09:46:42;;;;;;;5.20;2.17;;;;;;;;;;4984065;28;20029;-65
2023/12/12 09:49:08;;;;;;;3.95;1.45;;;;;;;;;;4979697;28;20034;-65
2023/12/12 09:51:34;;;;;;;6.22;2.28;;;;;;;;;;4988390;28;20038;-65
2023/12/12 09:54:01;;;;;;;11.40;2.47;;;;;;;;;;4957622;28;20092;-65
2023/12/12 09:56:26;;;;;;;5.88;2.00;;;;;;;;;;4975195;28;20820;-65
2023/12/12 09:58:52;;;;;;;7.43;1.95;;;;;;;;;;4975769;28;20030;-65
2023/12/12 10:01:17;;;;;;;6.80;2.17;;;;;;;;;;4976861;28;20052;-65
2023/12/12 10:03:43;;;;;;;5.43;1.80;;;;;;;;;;4980741;28;20025;-65
2023/12/12 10:06:09;;;;;;;7.35;2.13;;;;;;;;;;4983355;28;20033;-65
2023/12/12 10:08:38;;;;;;;6.07;2.15;;;;;;;;;;4975905;28;20080;-64
2023/12/12 10:11:08;;;;;;;5.93;2.05;;;;;;;;;;4987079;28;20876;-65
2023/12/12 10:13:56;;;;;;;6.40;2.08;;;;;;;;;;4977233;28;20025;-65
2023/12/12 10:16:21;;;;;;;8.30;1.98;;;;;;;;;;4978524;28;20040;-65
2023/12/12 10:18:48;;;;;;;5.32;2.15;;;;;;;;;;4977228;28;20065;-66
2023/12/12 10:21:14;;;;;;;4.63;2.08;;;;;;;;;;4984789;28;20034;-65
2023/12/12 10:23:46;;;;;;;7.30;2.10;;;;;;;;;;4979276;28;20061;-65
2023/12/12 10:26:15;;;;;;;8.85;2.33;;;;;;;;;;4958936;28;20068;-65
2023/12/12 10:28:41;;;;;;;4.82;1.60;;;;;;;;;;4989518;28;20018;-66
2023/12/12 10:31:10;;;;;;;7.68;2.08;;;;;;;;;;4988300;28;20128;-66
2023/12/12 10:33:35;;;;;;;4.53;1.80;;;;;;;;;;4983768;28;20022;-66
2023/12/12 10:36:03;;;;;;;7.93;2.35;;;;;;;;;;4983950;28;20087;-65
2023/12/12 10:38:28;;;;;;;3.60;1.50;;;;;;;;;;4987642;28;20017;-66
2023/12/12 10:40:53;;;;;;;3.42;1.75;;;;;;;;;;4991699;28;20060;-66
2023/12/12 10:43:20;;;;;;;5.53;1.83;;;;;;;;;;4983814;28;20092;-66
2023/12/12 10:45:46;;;;;;;3.22;1.77;;;;;;;;;;4987997;28;20875;-65
2023/12/12 10:48:13;;;;;;;4.45;1.75;;;;;;;;;;4987296;28;20131;-66
2023/12/12 10:50:43;;;;;;;4.60;1.67;;;;;;;;;;4983295;28;20025;-65
2023/12/12 10:53:10;;;;;;;6.30;1.50;;;;;;;;;;4983128;28;20145;-65
2023/12/12 10:55:35;;;;;;;4.38;1.58;;;;;;;;;;4985288;28;20033;-65
2023/12/12 10:58:02;;;;;;;4.63;1.70;;;;;;;;;;4976755;28;20137;-65
2023/12/12 11:00:29;;;;;;;4.13;1.73;;;;;;;;;;4997733;28;20028;-66
2023/12/12 11:02:55;;;;;;;4.63;1.77;;;;;;;;;;5011679;28;20034;-65
2023/12/12 11:05:20;;;;;;;3.22;1.95;;;;;;;;;;4991991;28;20068;-65
2023/12/12 11:07:48;;;;;;;4.63;1.60;;;;;;;;;;5019396;28;20037;-65
2023/12/12 11:10:14;;;;;;;4.22;1.42;;;;;;;;;;5010364;28;20419;-65
2023/12/12 11:12:44;;;;;;;3.78;1.48;;;;;;;;;;5010366;28;20029;-66
2023/12/12 11:15:10;;;;;;;4.85;1.85;;;;;;;;;;5009720;28;20495;-66
2023/12/12 11:17:35;;;;;;;6.30;1.90;;;;;;;;;;5013271;28;20033;-66
2023/12/12 11:20:14;;;;;;;7.00;1.73;;;;;;;;;;5018463;28;20033;-66
2023/12/12 11:22:40;;;;;;;3.80;1.63;;;;;;;;;;5020311;28;20026;-66
2023/12/12 11:25:08;;;;;;;3.25;1.30;;;;;;;;;;5011730;28;20026;-66
2023/12/12 11:27:39;;;;;;;3.63;1.48;;;;;;;;;;5018994;28;20104;-66
2023/12/12 11:30:05;;;;;;;5.63;1.60;;;;;;;;;;5021176;28;20032;-66
2023/12/12 11:32:32;;;;;;;4.45;1.55;;;;;;;;;;5020689;28;20546;-66
2023/12/12 11:34:58;;;;;;;3.70;1.80;;;;;;;;;;5013257;28;20029;-66
2023/12/12 11:37:37;;;;;;;5.75;1.25;;;;;;;;;;5016659;28;20471;-65
2023/12/12 11:40:03;;;;;;;3.90;1.85;;;;;;;;;;5014424;28;20022;-66
2023/12/12 11:42:29;;;;;;;4.22;2.00;;;;;;;;;;5019366;28;20018;-66
2023/12/12 11:44:55;;;;;;;6.95;2.40;;;;;;;;;;5011344;28;20388;-66
2023/12/12 11:47:24;;;;;;;4.63;1.90;;;;;;;;;;5012434;28;20037;-65
2023/12/12 11:49:50;;;;;;;4.82;2.13;;;;;;;;;;5017248;28;20025;-65
2023/12/12 11:52:34;;;;;;;3.70;2.00;;;;;;;;;;5009246;28;20024;-66
2023/12/12 11:54:59;;;;;;;4.67;1.70;;;;;;;;;;5012396;28;20025;-66
2023/12/12 11:57:25;;;;;;;5.90;2.03;;;;;;;;;;4994413;28;20038;-65
2023/12/12 11:59:51;;;;;;;4.32;2.38;;;;;;;;;;5019326;28;20033;-65
2023/12/12 12:02:16;;;;;;;5.03;2.20;;;;;;;;;;5018329;28;20021;-66
2023/12/12 12:04:41;;;;;;;5.07;2.60;;;;;;;;;;5012228;28;20614;-66
2023/12/12 12:07:07;;;;;;;6.27;2.30;;;;;;;;;;5016140;28;20053;-65
2023/12/12 12:09:33;;;;;;;6.20;2.30;;;;;;;;;;5011474;28;20311;-65
2023/12/12 12:11:58;;;;;;;6.55;2.38;;;;;;;;;;5015738;28;20036;-65
2023/12/12 12:14:23;;;;;;;4.13;2.03;;;;;;;;;;5017723;28;20033;-66
2023/12/12 12:16:58;;;;;;;4.68;2.15;;;;;;;;;;5019770;28;20307;-65
2023/12/12 12:19:23;;;;;;;;;;;;;;;;;;5019019;28;20030;-65
2023/12/12 12:21:48;;;;;;;3.75;1.70;;;;;;;;;;5010773;28;20012;-65
2023/12/12 12:24:13;;;;;;;4.85;2.00;;;;;;;;;;5019103;28;20151;-65
2023/12/12 12:26:38;;;;;;;8.48;2.28;;;;;;;;;;5026037;28;20021;-65
2023/12/12 12:29:10;;;;;;;5.45;2.08;;;;;;;;;;5010952;28;20033;-65
2023/12/12 12:31:38;;;;;;;5.90;2.28;;;;;;;;;;5019115;28;20030;-65
2023/12/12 12:34:03;;;;;;;6.00;2.13;;;;;;;;;;5011298;28;20415;-65
2023/12/12 12:36:37;;;;;;;4.10;2.20;;;;;;;;;;5017380;28;20032;-65
2023/12/12 12:39:03;;;;;;;5.32;2.00;;;;;;;;;;5000708;28;20045;-65
2023/12/12 12:41:28;;;;;;;4.00;2.00;;;;;;;;;;5005541;28;20049;-66
2023/12/12 12:43:54;;;;;;;3.58;1.85;;;;;;;;;;5012651;28;20026;-64
2023/12/12 12:46:20;;;;;;;5.07;2.08;;;;;;;;;;5016082;28;20022;-64
2023/12/12 12:48:45;;;;;;;3.40;1.70;;;;;;;;;;5013724;28;20062;-65
2023/12/12 12:51:10;;;;;;;3.80;2.00;;;;;;;;;;5017055;28;20311;-63
2023/12/12 12:53:36;;;;;;;7.97;1.80;;;;;;;;;;5011358;28;20284;-63
2023/12/12 12:56:01;;;;;;;3.47;1.70;;;;;;;;;;5010926;28;20026;-66
2023/12/12 12:58:27;;;;;;;3.42;1.60;;;;;;;;;;5013745;28;20280;-65
2023/12/12 13:00:52;;;;;;;4.28;1.65;;;;;;;;;;5016023;28;20033;-65
2023/12/12 13:03:17;;;;;;;4.30;2.00;;;;;;;;;;5013863;28;20172;-65
2023/12/12 13:05:42;;;;;;;3.57;1.93;;;;;;;;;;5018393;28;20037;-62
2023/12/12 13:08:07;;;;;;;3.55;1.45;;;;;;;;;;5031014;28;20268;-62
2023/12/12 13:10:33;;;;;;;4.07;1.70;;;;;;;;;;5029630;28;20606;-62
2023/12/12 13:12:58;;;;;;;5.83;1.27;;;;;;;;;;5017575;28;20638;-62
2023/12/12 13:15:24;;;;;;;2.78;1.23;;;;;;;;;;5026672;28;20839;-62
2023/12/12 13:17:49;;;;;;;3.47;1.40;;;;;;;;;;5020217;28;20103;-62
2023/12/12 13:20:15;;;;;;;3.55;1.73;;;;;;;;;;5030897;28;20060;-62
2023/12/12 13:22:41;;;;;;;3.30;1.65;;;;;;;;;;5015705;28;20030;-62
2023/12/12 13:25:08;;;;;;;3.72;1.65;;;;;;;;;;5015379;28;20030;-62
2023/12/12 13:27:34;;;;;;;5.05;1.50;;;;;;;;;;5021515;28;20034;-62
2023/12/12 13:29:59;;;;;;;3.67;1.77;;;;;;;;;;5016502;28;20110;-62
2023/12/12 13:32:24;;;;;;;4.43;1.47;;;;;;;;;;5013674;28;20133;-62
2023/12/12 13:34:49;;;;;;;4.80;1.23;;;;;;;;;;5013507;28;20378;-62
2023/12/12 13:37:15;;;;;;;2.53;1.20;;;;;;;;;;5013722;28;20308;-62
2023/12/12 13:39:40;;;;;;;2.85;1.50;;;;;;;;;;5013659;28;20445;-63
2023/12/12 13:42:06;;;;;;;3.50;1.93;;;;;;;;;;5016725;28;20041;-62
2023/12/12 13:44:31;;;;;;;2.83;1.50;;;;;;;;;;5012910;28;20281;-64
2023/12/12 13:46:57;;;;;;;3.13;1.58;;;;;;;;;;5014438;28;20018;-64
2023/12/12 13:49:22;;;;;;;3.97;2.00;;;;;;;;;;5018277;28;20044;-62
2023/12/12 13:51:47;;;;;;;2.85;1.27;;;;;;;;;;5012297;28;20034;-62
2023/12/12 13:54:13;;;;;;;2.83;1.43;;;;;;;;;;5018460;28;20483;-62
2023/12/12 13:56:38;;;;;;;3.00;1.80;;;;;;;;;;5019002;28;20288;-62
2023/12/12 13:59:03;;;;;;;3.25;1.80;;;;;;;;;;5013240;28;20432;-62
2023/12/12 14:01:28;;;;;;;4.33;1.53;;;;;;;;;;5021300;28;20036;-61
2023/12/12 14:03:54;;;;;;;4.77;1.83;;;;;;;;;;5015402;28;20261;-63
2023/12/12 14:06:19;;;;;;;3.07;1.57;;;;;;;;;;5014888;28;20277;-62
2023/12/12 14:08:44;;;;;;;3.20;1.70;;;;;;;;;;5013410;28;20277;-64
2023/12/12 14:11:11;;;;;;;2.70;1.00;;;;;;;;;;5015733;28;20273;-62
2023/12/12 14:13:36;;;;;;;2.55;1.20;;;;;;;;;;5016792;28;20542;-62
2023/12/12 14:16:02;;;;;;;2.60;1.23;;;;;;;;;;5015706;28;20026;-64
2023/12/12 14:18:27;;;;;;;2.17;1.05;;;;;;;;;;5020456;28;20277;-64
2023/12/12 14:20:52;;;;;;;2.67;1.33;;;;;;;;;;5012482;28;20038;-63
2023/12/12 14:23:18;;;;;;;2.37;1.27;;;;;;;;;;5014156;28;20273;-62
2023/12/12 14:25:44;;;;;;;3.38;1.10;;;;;;;;;;5019876;28;20272;-64
2023/12/12 14:28:09;;;;;;;2.55;1.35;;;;;;;;;;5018743;28;20472;-64
2023/12/12 14:30:34;;;;;;;2.20;1.20;;;;;;;;;;5015076;28;20105;-64